sensor_id;sensor_type;location;lat;lon;timestamp;pressure;altitude;pressure_sealevel;temperature;humidity
35798;BME280;21918;49.940;7.774;2022-09-27T00:00:11;96873.56;;;17.70;64.65
35798;BME280;21918;49.940;7.774;2022-09-27T00:02:37;96872.78;;;17.69;64.41
35798;BME280;21918;49.940;7.774;2022-09-27T00:05:05;96866.03;;;17.67;64.55
35798;BME280;21918;49.940;7.774;2022-09-27T00:07:31;96870.03;;;17.66;64.50
35798;BME280;21918;49.940;7.774;2022-09-27T00:09:58;96872.47;;;17.63;64.43
35798;BME280;21918;49.940;7.774;2022-09-27T00:12:25;96864.50;;;17.62;64.74
35798;BME280;21918;49.940;7.774;2022-09-27T00:14:51;96871.25;;;17.64;64.56
35798;BME280;21918;49.940;7.774;2022-09-27T00:17:19;96873.63;;;17.66;64.40
35798;BME280;21918;49.940;7.774;2022-09-27T00:19:46;96864.06;;;17.63;64.53
35798;BME280;21918;49.940;7.774;2022-09-27T00:22:13;96868.44;;;17.64;64.60
35798;BME280;21918;49.940;7.774;2022-09-27T00:24:39;96872.47;;;17.63;64.58
35798;BME280;21918;49.940;7.774;2022-09-27T00:27:06;96870.88;;;17.63;64.56
35798;BME280;21918;49.940;7.774;2022-09-27T00:29:33;96868.84;;;17.63;64.50
35798;BME280;21918;49.940;7.774;2022-09-27T00:32:00;96873.69;;;17.63;64.55
35798;BME280;21918;49.940;7.774;2022-09-27T00:34:28;96869.66;;;17.63;64.69
35798;BME280;21918;49.940;7.774;2022-09-27T00:36:55;96874.03;;;17.64;64.63
35798;BME280;21918;49.940;7.774;2022-09-27T00:39:21;96862.50;;;17.63;64.50
35798;BME280;21918;49.940;7.774;2022-09-27T00:41:48;96868.50;;;17.61;64.72
35798;BME280;21918;49.940;7.774;2022-09-27T00:47:27;96857.44;;;17.54;64.82
35798;BME280;21918;49.940;7.774;2022-09-27T00:50:01;96866.19;;;17.56;64.51
35798;BME280;21918;49.940;7.774;2022-09-27T00:52:31;96866.13;;;17.59;64.80
35798;BME280;21918;49.940;7.774;2022-09-27T00:55:07;96858.91;;;17.62;64.54
35798;BME280;21918;49.940;7.774;2022-09-27T00:57:36;96860.53;;;17.59;64.50
35798;BME280;21918;49.940;7.774;2022-09-27T01:00:06;96859.75;;;17.59;64.46
35798;BME280;21918;49.940;7.774;2022-09-27T01:02:34;96860.16;;;17.57;64.51
35798;BME280;21918;49.940;7.774;2022-09-27T01:05:05;96862.19;;;17.57;64.53
35798;BME280;21918;49.940;7.774;2022-09-27T01:07:34;96862.97;;;17.57;64.53
35798;BME280;21918;49.940;7.774;2022-09-27T01:10:01;96856.16;;;17.58;64.60
35798;BME280;21918;49.940;7.774;2022-09-27T01:12:38;96853.47;;;17.51;64.52
35798;BME280;21918;49.940;7.774;2022-09-27T01:15:14;96863.06;;;17.50;64.41
35798;BME280;21918;49.940;7.774;2022-09-27T01:17:51;96860.28;;;17.50;64.60
35798;BME280;21918;49.940;7.774;2022-09-27T01:20:52;96856.00;;;17.42;64.72
35798;BME280;21918;49.940;7.774;2022-09-27T01:23:37;96859.97;;;17.45;64.64
35798;BME280;21918;49.940;7.774;2022-09-27T01:26:12;96851.16;;;17.46;64.69
35798;BME280;21918;49.940;7.774;2022-09-27T01:28:53;96864.00;;;17.40;64.75
35798;BME280;21918;49.940;7.774;2022-09-27T01:31:30;96862.00;;;17.41;64.73
35798;BME280;21918;49.940;7.774;2022-09-27T01:34:03;96864.00;;;17.40;64.69
35798;BME280;21918;49.940;7.774;2022-09-27T01:36:41;96861.19;;;17.40;64.70
35798;BME280;21918;49.940;7.774;2022-09-27T01:39:20;96867.22;;;17.39;64.71
35798;BME280;21918;49.940;7.774;2022-09-27T01:41:55;96866.44;;;17.38;64.67
35798;BME280;21918;49.940;7.774;2022-09-27T01:44:29;96867.28;;;17.35;64.88
35798;BME280;21918;49.940;7.774;2022-09-27T01:47:03;96864.09;;;17.33;64.91
35798;BME280;21918;49.940;7.774;2022-09-27T01:49:34;96873.72;;;17.32;65.00
35798;BME280;21918;49.940;7.774;2022-09-27T01:52:07;96880.16;;;17.29;64.95
35798;BME280;21918;49.940;7.774;2022-09-27T01:54:39;96874.66;;;17.22;65.09
35798;BME280;21918;49.940;7.774;2022-09-27T01:57:08;96877.88;;;17.21;65.05
35798;BME280;21918;49.940;7.774;2022-09-27T01:59:42;96883.91;;;17.19;65.02
35798;BME280;21918;49.940;7.774;2022-09-27T02:02:13;96879.97;;;17.13;65.12
35798;BME280;21918;49.940;7.774;2022-09-27T02:04:42;96886.78;;;17.12;65.36
35798;BME280;21918;49.940;7.774;2022-09-27T02:07:14;96879.97;;;17.13;65.29
35798;BME280;21918;49.940;7.774;2022-09-27T02:09:46;96872.44;;;17.10;65.14
35798;BME280;21918;49.940;7.774;2022-09-27T02:12:17;96883.25;;;17.08;65.22
35798;BME280;21918;49.940;7.774;2022-09-27T02:14:49;96882.97;;;16.99;65.22
35798;BME280;21918;49.940;7.774;2022-09-27T02:17:24;96883.91;;;16.89;65.27
35798;BME280;21918;49.940;7.774;2022-09-27T02:20:00;96892.75;;;16.84;65.33
35798;BME280;21918;49.940;7.774;2022-09-27T02:22:34;96883.50;;;16.87;65.42
35798;BME280;21918;49.940;7.774;2022-09-27T02:25:08;96899.88;;;16.89;65.32
35798;BME280;21918;49.940;7.774;2022-09-27T02:27:39;96899.53;;;16.83;65.51
35798;BME280;21918;49.940;7.774;2022-09-27T02:30:12;96901.97;;;16.81;65.66
35798;BME280;21918;49.940;7.774;2022-09-27T02:32:41;96908.84;;;16.73;65.36
35798;BME280;21918;49.940;7.774;2022-09-27T02:35:12;96910.53;;;16.67;65.96
35798;BME280;21918;49.940;7.774;2022-09-27T02:37:41;96907.28;;;16.72;65.77
35798;BME280;21918;49.940;7.774;2022-09-27T02:40:08;96920.03;;;16.73;65.74
35798;BME280;21918;49.940;7.774;2022-09-27T02:42:36;96916.47;;;16.73;65.85
35798;BME280;21918;49.940;7.774;2022-09-27T02:45:04;96924.41;;;16.74;65.84
35798;BME280;21918;49.940;7.774;2022-09-27T02:50:41;96944.81;;;16.71;65.59
35798;BME280;21918;49.940;7.774;2022-09-27T02:53:16;96949.56;;;16.74;65.32
35798;BME280;21918;49.940;7.774;2022-09-27T02:55:50;96945.22;;;16.70;65.55
35798;BME280;21918;49.940;7.774;2022-09-27T02:58:24;96956.44;;;16.66;65.52
35798;BME280;21918;49.940;7.774;2022-09-27T03:01:01;96955.28;;;16.64;65.68
35798;BME280;21918;49.940;7.774;2022-09-27T03:03:35;96951.59;;;16.70;65.92
35798;BME280;21918;49.940;7.774;2022-09-27T03:06:07;96957.53;;;16.76;65.76
35798;BME280;21918;49.940;7.774;2022-09-27T03:08:36;96955.91;;;16.78;65.71
35798;BME280;21918;49.940;7.774;2022-09-27T03:11:03;96963.88;;;16.80;65.50
35798;BME280;21918;49.940;7.774;2022-09-27T03:13:30;96955.50;;;16.80;65.70
35798;BME280;21918;49.940;7.774;2022-09-27T03:15:59;96961.84;;;16.80;65.73
35798;BME280;21918;49.940;7.774;2022-09-27T03:18:25;96959.47;;;16.79;65.57
35798;BME280;21918;49.940;7.774;2022-09-27T03:20:52;96973.84;;;16.81;65.61
35798;BME280;21918;49.940;7.774;2022-09-27T03:23:20;96971.03;;;16.84;65.81
35798;BME280;21918;49.940;7.774;2022-09-27T03:25:47;96966.59;;;16.87;65.58
35798;BME280;21918;49.940;7.774;2022-09-27T03:28:14;96969.34;;;16.90;65.57
35798;BME280;21918;49.940;7.774;2022-09-27T03:30:41;96961.34;;;16.92;65.69
35798;BME280;21918;49.940;7.774;2022-09-27T03:33:09;96972.91;;;16.94;65.26
35798;BME280;21918;49.940;7.774;2022-09-27T03:35:36;96978.09;;;16.92;65.56
35798;BME280;21918;49.940;7.774;2022-09-27T03:38:03;96968.13;;;16.91;65.46
35798;BME280;21918;49.940;7.774;2022-09-27T03:40:32;96969.72;;;16.92;65.42
35798;BME280;21918;49.940;7.774;2022-09-27T03:42:59;96974.91;;;16.94;65.53
35798;BME280;21918;49.940;7.774;2022-09-27T03:45:26;96972.59;;;16.85;65.17
35798;BME280;21918;49.940;7.774;2022-09-27T03:47:53;96983.38;;;16.83;65.42
35798;BME280;21918;49.940;7.774;2022-09-27T03:50:20;96979.75;;;16.86;65.36
35798;BME280;21918;49.940;7.774;2022-09-27T03:52:46;96975.75;;;16.87;65.18
35798;BME280;21918;49.940;7.774;2022-09-27T03:55:13;96990.22;;;16.79;65.09
35798;BME280;21918;49.940;7.774;2022-09-27T03:57:44;96988.69;;;16.74;65.27
35798;BME280;21918;49.940;7.774;2022-09-27T04:00:12;96975.09;;;16.76;65.47
35798;BME280;21918;49.940;7.774;2022-09-27T04:02:39;96977.47;;;16.78;65.32
35798;BME280;21918;49.940;7.774;2022-09-27T04:05:06;96991.06;;;16.76;65.41
35798;BME280;21918;49.940;7.774;2022-09-27T04:07:35;96987.84;;;16.77;65.25
35798;BME280;21918;49.940;7.774;2022-09-27T04:10:04;96996.63;;;16.79;65.34
35798;BME280;21918;49.940;7.774;2022-09-27T04:12:31;96986.66;;;16.78;65.31
35798;BME280;21918;49.940;7.774;2022-09-27T04:14:59;96988.22;;;16.79;65.06
35798;BME280;21918;49.940;7.774;2022-09-27T04:17:26;96992.69;;;16.73;65.12
35798;BME280;21918;49.940;7.774;2022-09-27T04:19:52;96993.47;;;16.74;65.34
35798;BME280;21918;49.940;7.774;2022-09-27T04:22:20;96989.06;;;16.76;65.26
35798;BME280;21918;49.940;7.774;2022-09-27T04:24:48;96992.66;;;16.77;65.36
35798;BME280;21918;49.940;7.774;2022-09-27T04:27:14;96983.47;;;16.76;65.37
35798;BME280;21918;49.940;7.774;2022-09-27T04:29:41;96990.59;;;16.81;65.42
35798;BME280;21918;49.940;7.774;2022-09-27T04:32:11;96980.19;;;17.18;63.64
35798;BME280;21918;49.940;7.774;2022-09-27T04:34:38;96986.78;;;17.01;64.56
35798;BME280;21918;49.940;7.774;2022-09-27T04:37:22;96987.28;;;16.93;64.58
35798;BME280;21918;49.940;7.774;2022-09-27T04:39:49;96994.06;;;16.92;64.71
35798;BME280;21918;49.940;7.774;2022-09-27T04:42:16;96994.97;;;16.85;64.69
35798;BME280;21918;49.940;7.774;2022-09-27T04:44:44;96998.19;;;16.80;65.13
35798;BME280;21918;49.940;7.774;2022-09-27T04:47:13;97005.81;;;16.80;65.08
35798;BME280;21918;49.940;7.774;2022-09-27T04:49:40;97001.06;;;16.73;64.94
35798;BME280;21918;49.940;7.774;2022-09-27T04:52:06;97009.53;;;16.66;64.89
35798;BME280;21918;49.940;7.774;2022-09-27T04:54:33;97007.63;;;16.56;65.31
35798;BME280;21918;49.940;7.774;2022-09-27T04:57:00;97010.81;;;16.58;65.54
35798;BME280;21918;49.940;7.774;2022-09-27T04:59:26;97014.34;;;16.62;65.20
35798;BME280;21918;49.940;7.774;2022-09-27T05:01:53;97004.00;;;16.59;65.27
35798;BME280;21918;49.940;7.774;2022-09-27T05:04:21;97018.38;;;16.58;64.98
35798;BME280;21918;49.940;7.774;2022-09-27T05:06:48;97023.69;;;16.45;65.01
35798;BME280;21918;49.940;7.774;2022-09-27T05:09:14;97026.53;;;16.35;65.43
35798;BME280;21918;49.940;7.774;2022-09-27T05:11:41;97035.31;;;16.33;65.63
35798;BME280;21918;49.940;7.774;2022-09-27T05:14:07;97031.41;;;16.27;65.51
35798;BME280;21918;49.940;7.774;2022-09-27T05:16:34;97037.34;;;16.29;65.60
35798;BME280;21918;49.940;7.774;2022-09-27T05:19:01;97033.75;;;16.32;65.53
35798;BME280;21918;49.940;7.774;2022-09-27T05:21:29;97040.09;;;16.36;65.63
35798;BME280;21918;49.940;7.774;2022-09-27T05:23:57;97032.94;;;16.35;65.55
35798;BME280;21918;49.940;7.774;2022-09-27T05:26:25;97037.69;;;16.38;65.66
35798;BME280;21918;49.940;7.774;2022-09-27T05:28:52;97045.66;;;16.43;65.74
35798;BME280;21918;49.940;7.774;2022-09-27T05:31:18;97044.47;;;16.44;65.52
35798;BME280;21918;49.940;7.774;2022-09-27T05:33:45;97050.06;;;16.44;65.83
35798;BME280;21918;49.940;7.774;2022-09-27T05:36:12;97054.81;;;16.47;65.51
35798;BME280;21918;49.940;7.774;2022-09-27T05:38:40;97052.84;;;16.44;65.49
35798;BME280;21918;49.940;7.774;2022-09-27T05:41:07;97061.22;;;16.44;65.77
35798;BME280;21918;49.940;7.774;2022-09-27T05:43:34;97065.19;;;16.43;65.29
35798;BME280;21918;49.940;7.774;2022-09-27T05:46:02;97069.59;;;16.44;65.73
35798;BME280;21918;49.940;7.774;2022-09-27T05:48:30;97068.78;;;16.47;65.71
35798;BME280;21918;49.940;7.774;2022-09-27T05:50:57;97067.94;;;16.50;65.73
35798;BME280;21918;49.940;7.774;2022-09-27T05:53:24;97071.88;;;16.56;65.40
35798;BME280;21918;49.940;7.774;2022-09-27T05:55:52;97069.88;;;16.57;65.42
35798;BME280;21918;49.940;7.774;2022-09-27T05:58:18;97069.13;;;16.53;65.31
35798;BME280;21918;49.940;7.774;2022-09-27T06:00:45;97079.09;;;16.50;65.40
35798;BME280;21918;49.940;7.774;2022-09-27T06:03:12;97078.28;;;16.53;65.40
35798;BME280;21918;49.940;7.774;2022-09-27T06:05:39;97085.47;;;16.54;65.42
35798;BME280;21918;49.940;7.774;2022-09-27T06:08:08;97085.84;;;16.56;65.18
35798;BME280;21918;49.940;7.774;2022-09-27T06:10:35;97095.84;;;16.54;65.14
35798;BME280;21918;49.940;7.774;2022-09-27T06:13:05;97095.47;;;16.52;65.21
35798;BME280;21918;49.940;7.774;2022-09-27T06:15:33;97099.13;;;16.45;65.07
35798;BME280;21918;49.940;7.774;2022-09-27T06:18:04;97102.28;;;16.40;65.22
35798;BME280;21918;49.940;7.774;2022-09-27T06:20:31;97116.69;;;16.42;65.35
35798;BME280;21918;49.940;7.774;2022-09-27T06:23:06;97117.47;;;16.39;64.94
35798;BME280;21918;49.940;7.774;2022-09-27T06:25:33;97123.88;;;16.40;65.06
35798;BME280;21918;49.940;7.774;2022-09-27T06:28:00;97126.25;;;16.41;65.44
35798;BME280;21918;49.940;7.774;2022-09-27T06:30:29;97128.63;;;16.46;65.32
35798;BME280;21918;49.940;7.774;2022-09-27T06:32:56;97130.25;;;16.47;65.18
35798;BME280;21918;49.940;7.774;2022-09-27T06:35:23;97134.97;;;16.50;65.18
35798;BME280;21918;49.940;7.774;2022-09-27T06:37:50;97137.78;;;16.50;65.24
35798;BME280;21918;49.940;7.774;2022-09-27T06:40:19;97136.59;;;16.51;65.20
35798;BME280;21918;49.940;7.774;2022-09-27T06:42:46;97139.38;;;16.51;65.04
35798;BME280;21918;49.940;7.774;2022-09-27T06:45:14;97138.16;;;16.52;65.24
35798;BME280;21918;49.940;7.774;2022-09-27T06:47:42;97139.75;;;16.53;65.01
35798;BME280;21918;49.940;7.774;2022-09-27T06:50:09;97136.19;;;16.49;65.13
35798;BME280;21918;49.940;7.774;2022-09-27T06:52:36;97147.00;;;16.47;65.11
35798;BME280;21918;49.940;7.774;2022-09-27T06:55:04;97150.19;;;16.46;65.00
35798;BME280;21918;49.940;7.774;2022-09-27T06:57:31;97146.97;;;16.40;65.29
35798;BME280;21918;49.940;7.774;2022-09-27T07:00:12;97156.19;;;16.44;65.15
35798;BME280;21918;49.940;7.774;2022-09-27T07:02:54;97155.78;;;16.42;65.07
35798;BME280;21918;49.940;7.774;2022-09-27T07:05:26;97162.19;;;16.43;65.06
35798;BME280;21918;49.940;7.774;2022-09-27T07:07:53;97160.53;;;16.42;65.17
35798;BME280;21918;49.940;7.774;2022-09-27T07:10:22;97166.16;;;16.45;65.23
35798;BME280;21918;49.940;7.774;2022-09-27T07:12:49;97164.53;;;16.48;64.96
35798;BME280;21918;49.940;7.774;2022-09-27T07:15:17;97166.16;;;16.49;65.31
35798;BME280;21918;49.940;7.774;2022-09-27T07:17:45;97170.94;;;16.48;65.08
35798;BME280;21918;49.940;7.774;2022-09-27T07:20:13;97170.09;;;16.51;64.77
35798;BME280;21918;49.940;7.774;2022-09-27T07:22:41;97174.88;;;16.51;65.05
35798;BME280;21918;49.940;7.774;2022-09-27T07:25:10;97178.09;;;16.53;65.04
35798;BME280;21918;49.940;7.774;2022-09-27T07:27:37;97174.47;;;16.56;64.89
35798;BME280;21918;49.940;7.774;2022-09-27T07:30:06;97174.06;;;16.57;64.87
35798;BME280;21918;49.940;7.774;2022-09-27T07:32:34;97182.84;;;16.56;64.73
35798;BME280;21918;49.940;7.774;2022-09-27T07:35:01;97174.09;;;16.50;64.74
35798;BME280;21918;49.940;7.774;2022-09-27T07:37:30;97176.88;;;16.50;65.00
35798;BME280;21918;49.940;7.774;2022-09-27T07:39:57;97172.50;;;16.53;64.92
35798;BME280;21918;49.940;7.774;2022-09-27T07:42:24;97175.66;;;16.55;64.90
35798;BME280;21918;49.940;7.774;2022-09-27T07:44:53;97180.03;;;16.59;65.01
35798;BME280;21918;49.940;7.774;2022-09-27T07:47:19;97185.19;;;16.64;65.13
35798;BME280;21918;49.940;7.774;2022-09-27T07:49:48;97182.00;;;16.66;64.70
35798;BME280;21918;49.940;7.774;2022-09-27T07:52:15;97188.34;;;16.66;64.84
35798;BME280;21918;49.940;7.774;2022-09-27T07:54:43;97186.31;;;16.70;64.68
35798;BME280;21918;49.940;7.774;2022-09-27T07:57:09;97191.09;;;16.73;64.62
35798;BME280;21918;49.940;7.774;2022-09-27T07:59:36;97187.88;;;16.75;64.49
35798;BME280;21918;49.940;7.774;2022-09-27T08:02:03;97189.09;;;16.74;64.49
35798;BME280;21918;49.940;7.774;2022-09-27T08:04:29;97193.88;;;16.73;64.46
35798;BME280;21918;49.940;7.774;2022-09-27T08:06:56;97190.31;;;16.73;64.23
35798;BME280;21918;49.940;7.774;2022-09-27T08:09:23;97190.31;;;16.73;64.55
35798;BME280;21918;49.940;7.774;2022-09-27T08:11:52;97189.91;;;16.74;64.58
35798;BME280;21918;49.940;7.774;2022-09-27T08:14:22;97188.66;;;16.79;64.55
35798;BME280;21918;49.940;7.774;2022-09-27T08:16:49;97193.00;;;16.83;64.22
35798;BME280;21918;49.940;7.774;2022-09-27T08:19:16;97199.41;;;16.80;64.37
35798;BME280;21918;49.940;7.774;2022-09-27T08:21:43;97200.22;;;16.81;64.38
35798;BME280;21918;49.940;7.774;2022-09-27T08:24:10;97193.84;;;16.80;64.12
35798;BME280;21918;49.940;7.774;2022-09-27T08:26:37;97199.81;;;16.82;64.26
35798;BME280;21918;49.940;7.774;2022-09-27T08:29:05;97204.97;;;16.87;64.17
35798;BME280;21918;49.940;7.774;2022-09-27T08:31:32;97214.53;;;16.90;64.38
35798;BME280;21918;49.940;7.774;2022-09-27T08:33:58;97210.13;;;16.92;64.07
35798;BME280;21918;49.940;7.774;2022-09-27T08:36:26;97205.72;;;16.95;63.96
35798;BME280;21918;49.940;7.774;2022-09-27T08:38:53;97218.44;;;16.99;64.04
35798;BME280;21918;49.940;7.774;2022-09-27T08:41:30;97216.47;;;17.00;63.61
35798;BME280;21918;49.940;7.774;2022-09-27T08:44:10;97218.47;;;16.96;63.63
35798;BME280;21918;49.940;7.774;2022-09-27T08:46:46;97215.31;;;16.94;63.73
35798;BME280;21918;49.940;7.774;2022-09-27T08:49:22;97223.28;;;16.92;64.01
35798;BME280;21918;49.940;7.774;2022-09-27T08:51:50;97222.53;;;16.91;63.99
35798;BME280;21918;49.940;7.774;2022-09-27T08:54:20;97221.31;;;16.92;63.78
35798;BME280;21918;49.940;7.774;2022-09-27T08:56:48;97223.28;;;16.95;63.93
35798;BME280;21918;49.940;7.774;2022-09-27T08:59:19;97216.88;;;16.98;63.55
35798;BME280;21918;49.940;7.774;2022-09-27T09:01:48;97213.69;;;16.96;63.58
35798;BME280;21918;49.940;7.774;2022-09-27T09:04:24;97209.31;;;16.95;63.36
35798;BME280;21918;49.940;7.774;2022-09-27T09:06:59;97218.44;;;16.99;63.46
35798;BME280;21918;49.940;7.774;2022-09-27T09:09:37;97218.81;;;17.05;63.30
35798;BME280;21918;49.940;7.774;2022-09-27T09:12:17;97227.59;;;17.07;63.31
35798;BME280;21918;49.940;7.774;2022-09-27T09:15:16;97216.00;;;17.05;63.18
35798;BME280;21918;49.940;7.774;2022-09-27T09:17:54;97227.19;;;17.08;63.09
35798;BME280;21918;49.940;7.774;2022-09-27T09:20:34;97226.38;;;17.04;63.12
35798;BME280;21918;49.940;7.774;2022-09-27T09:23:23;97224.81;;;17.03;63.29
35798;BME280;21918;49.940;7.774;2022-09-27T09:25:59;97230.34;;;17.10;63.08
35798;BME280;21918;49.940;7.774;2022-09-27T09:28:42;97225.94;;;17.13;63.22
35798;BME280;21918;49.940;7.774;2022-09-27T09:31:19;97229.47;;;17.20;63.15
35798;BME280;21918;49.940;7.774;2022-09-27T09:33:54;97230.59;;;17.26;63.20
35798;BME280;21918;49.940;7.774;2022-09-27T09:36:26;97238.25;;;17.22;62.89
35798;BME280;21918;49.940;7.774;2022-09-27T09:38:56;97238.25;;;17.19;62.98
35798;BME280;21918;49.940;7.774;2022-09-27T09:41:27;97243.84;;;17.19;63.11
35798;BME280;21918;49.940;7.774;2022-09-27T09:43:58;97237.44;;;17.22;63.02
35798;BME280;21918;49.940;7.774;2022-09-27T09:46:34;97248.19;;;17.27;62.97
35798;BME280;21918;49.940;7.774;2022-09-27T09:49:07;97242.94;;;17.32;62.98
35798;BME280;21918;49.940;7.774;2022-09-27T09:51:42;97225.34;;;17.35;62.69
35798;BME280;21918;49.940;7.774;2022-09-27T09:54:14;97240.50;;;17.38;62.68
35798;BME280;21918;49.940;7.774;2022-09-27T09:56:48;97231.28;;;17.41;62.51
35798;BME280;21918;49.940;7.774;2022-09-27T09:59:22;97232.47;;;17.43;62.51
35798;BME280;21918;49.940;7.774;2022-09-27T10:01:56;97226.88;;;17.47;62.44
35798;BME280;21918;49.940;7.774;2022-09-27T10:04:28;97223.66;;;17.48;62.51
35798;BME280;21918;49.940;7.774;2022-09-27T10:06:58;97215.63;;;17.50;62.29
35798;BME280;21918;49.940;7.774;2022-09-27T10:09:27;97225.59;;;17.51;62.30
35798;BME280;21918;49.940;7.774;2022-09-27T10:11:54;97221.28;;;17.47;62.14
35798;BME280;21918;49.940;7.774;2022-09-27T10:14:22;97225.25;;;17.46;62.25
35798;BME280;21918;49.940;7.774;2022-09-27T10:16:54;97234.06;;;17.44;62.14
35798;BME280;21918;49.940;7.774;2022-09-27T10:19:26;97221.28;;;17.43;62.17
35798;BME280;21918;49.940;7.774;2022-09-27T10:21:58;97229.31;;;17.38;62.03
35798;BME280;21918;49.940;7.774;2022-09-27T10:24:29;97222.13;;;17.37;62.19
35798;BME280;21918;49.940;7.774;2022-09-27T10:27:17;97216.91;;;17.39;62.18
35798;BME280;21918;49.940;7.774;2022-09-27T10:29:44;97219.72;;;17.42;62.50
35798;BME280;21918;49.940;7.774;2022-09-27T10:32:20;97215.25;;;17.48;61.95
35798;BME280;21918;49.940;7.774;2022-09-27T10:34:49;97212.41;;;17.52;62.11
35798;BME280;21918;49.940;7.774;2022-09-27T10:37:17;97212.38;;;17.55;61.98
35798;BME280;21918;49.940;7.774;2022-09-27T10:39:45;97208.41;;;17.53;61.86
35798;BME280;21918;49.940;7.774;2022-09-27T10:42:21;97203.63;;;17.50;61.95
35798;BME280;21918;49.940;7.774;2022-09-27T10:44:48;97200.41;;;17.51;61.96
35798;BME280;21918;49.940;7.774;2022-09-27T10:47:18;97202.78;;;17.56;61.95
35798;BME280;21918;49.940;7.774;2022-09-27T10:49:48;97204.75;;;17.56;62.04
35798;BME280;21918;49.940;7.774;2022-09-27T10:52:18;97202.34;;;17.58;61.92
35798;BME280;21918;49.940;7.774;2022-09-27T10:54:52;97189.53;;;17.60;61.66
35798;BME280;21918;49.940;7.774;2022-09-27T10:57:23;97194.63;;;17.69;61.70
35798;BME280;21918;49.940;7.774;2022-09-27T10:59:54;97186.56;;;17.75;61.55
35798;BME280;21918;49.940;7.774;2022-09-27T11:02:23;97186.53;;;17.78;61.78
35798;BME280;21918;49.940;7.774;2022-09-27T11:05:05;97186.53;;;17.78;61.50
35798;BME280;21918;49.940;7.774;2022-09-27T11:07:34;97183.34;;;17.80;61.51
35798;BME280;21918;49.940;7.774;2022-09-27T11:10:01;97187.31;;;17.79;61.58
35798;BME280;21918;49.940;7.774;2022-09-27T11:12:30;97189.75;;;17.77;61.25
35798;BME280;21918;49.940;7.774;2022-09-27T11:15:03;97189.75;;;17.77;61.26
35798;BME280;21918;49.940;7.774;2022-09-27T11:17:36;97185.38;;;17.76;61.76
35798;BME280;21918;49.940;7.774;2022-09-27T11:20:23;97186.97;;;17.77;61.37
35798;BME280;21918;49.940;7.774;2022-09-27T11:23:30;97183.75;;;17.78;61.29
35798;BME280;21918;49.940;7.774;2022-09-27T11:26:09;97174.47;;;17.85;61.14
35798;BME280;21918;49.940;7.774;2022-09-27T11:28:50;97186.03;;;17.87;61.05
35798;BME280;21918;49.940;7.774;2022-09-27T11:31:29;97178.38;;;17.91;61.11
35798;BME280;21918;49.940;7.774;2022-09-27T11:34:19;97172.75;;;17.94;60.86
35798;BME280;21918;49.940;7.774;2022-09-27T11:37:00;97164.31;;;17.98;60.90
35798;BME280;21918;49.940;7.774;2022-09-27T11:39:36;97173.50;;;17.98;60.92
35798;BME280;21918;49.940;7.774;2022-09-27T11:42:21;97166.69;;;17.99;60.78
35798;BME280;21918;49.940;7.774;2022-09-27T11:45:00;97164.31;;;17.98;60.65
35798;BME280;21918;49.940;7.774;2022-09-27T11:47:45;97161.16;;;17.92;60.73
35798;BME280;21918;49.940;7.774;2022-09-27T11:50:40;97159.09;;;18.00;60.95
35798;BME280;21918;49.940;7.774;2022-09-27T11:53:21;97160.63;;;18.04;60.69
35798;BME280;21918;49.940;7.774;2022-09-27T11:55:55;97164.63;;;18.03;60.59
35798;BME280;21918;49.940;7.774;2022-09-27T11:58:30;97161.41;;;18.05;60.91
35798;BME280;21918;49.940;7.774;2022-09-27T12:01:08;97153.75;;;18.09;60.86
35798;BME280;21918;49.940;7.774;2022-09-27T12:03:51;97142.19;;;18.07;60.27
35798;BME280;21918;49.940;7.774;2022-09-27T12:06:29;97142.19;;;18.07;60.61
35798;BME280;21918;49.940;7.774;2022-09-27T12:09:04;97150.94;;;18.09;60.56
35798;BME280;21918;49.940;7.774;2022-09-27T12:11:36;97152.56;;;18.10;60.74
35798;BME280;21918;49.940;7.774;2022-09-27T12:14:09;97163.84;;;18.03;60.56
35798;BME280;21918;49.940;7.774;2022-09-27T12:16:41;97174.28;;;17.99;60.45
35798;BME280;21918;49.940;7.774;2022-09-27T12:19:15;97190.81;;;17.90;60.48
35798;BME280;21918;49.940;7.774;2022-09-27T12:21:43;97191.31;;;17.81;60.95
35798;BME280;21918;49.940;7.774;2022-09-27T12:24:18;97179.78;;;17.76;60.76
35798;BME280;21918;49.940;7.774;2022-09-27T12:26:49;97171.44;;;17.68;61.04
35798;BME280;21918;49.940;7.774;2022-09-27T12:29:21;97165.06;;;17.68;61.29
35798;BME280;21918;49.940;7.774;2022-09-27T12:31:56;97164.25;;;17.67;61.15
35798;BME280;21918;49.940;7.774;2022-09-27T12:34:31;97154.31;;;17.63;61.18
35798;BME280;21918;49.940;7.774;2022-09-27T12:37:02;97158.75;;;17.60;61.51
35798;BME280;21918;49.940;7.774;2022-09-27T12:39:37;97156.69;;;17.64;61.56
35798;BME280;21918;49.940;7.774;2022-09-27T12:42:13;97150.66;;;17.70;61.52
35798;BME280;21918;49.940;7.774;2022-09-27T12:44:42;97142.59;;;17.75;61.87
35798;BME280;21918;49.940;7.774;2022-09-27T12:47:17;97138.13;;;17.81;61.72
35798;BME280;21918;49.940;7.774;2022-09-27T12:49:53;97146.03;;;17.86;61.68
35798;BME280;21918;49.940;7.774;2022-09-27T12:52:28;97150.88;;;17.86;61.68
35798;BME280;21918;49.940;7.774;2022-09-27T12:55:16;97154.84;;;17.85;61.72
35798;BME280;21918;49.940;7.774;2022-09-27T12:57:52;97146.78;;;17.90;61.54
35798;BME280;21918;49.940;7.774;2022-09-27T13:00:31;97155.16;;;17.94;61.65
35798;BME280;21918;49.940;7.774;2022-09-27T13:03:18;97154.34;;;17.93;61.38
35798;BME280;21918;49.940;7.774;2022-09-27T13:06:24;97152.03;;;17.88;61.21
35798;BME280;21918;49.940;7.774;2022-09-27T13:09:18;97149.66;;;17.87;61.40
35798;BME280;21918;49.940;7.774;2022-09-27T13:11:55;97134.81;;;17.90;61.55
35798;BME280;21918;49.940;7.774;2022-09-27T13:14:28;97133.97;;;17.93;61.82
35798;BME280;21918;49.940;7.774;2022-09-27T13:16:56;97143.91;;;17.97;61.62
35798;BME280;21918;49.940;7.774;2022-09-27T13:19:41;97138.75;;;17.96;61.59
35798;BME280;21918;49.940;7.774;2022-09-27T13:22:14;97127.47;;;17.99;61.70
35798;BME280;21918;49.940;7.774;2022-09-27T13:25:00;97125.47;;;18.00;61.70
35798;BME280;21918;49.940;7.774;2022-09-27T13:27:38;97124.25;;;18.01;61.26